sensor_id;sensor_type;location;lat;lon;timestamp;temperature;humidity
9151;DHT22;4610;50.006;7.490;2023-04-07T00:00:23;6.40;99.90
9151;DHT22;4610;50.006;7.490;2023-04-07T00:02:50;6.40;99.90
9151;DHT22;4610;50.006;7.490;2023-04-07T00:05:17;6.40;99.90
9151;DHT22;4610;50.006;7.490;2023-04-07T00:07:45;6.50;99.90
9151;DHT22;4610;50.006;7.490;2023-04-07T00:10:11;6.50;99.90
9151;DHT22;4610;50.006;7.490;2023-04-07T00:12:38;6.50;99.90
9151;DHT22;4610;50.006;7.490;2023-04-07T00:15:06;6.50;99.90
9151;DHT22;4610;50.006;7.490;2023-04-07T00:17:33;6.50;99.90
9151;DHT22;4610;50.006;7.490;2023-04-07T00:20:00;6.40;99.90
9151;DHT22;4610;50.006;7.490;2023-04-07T00:22:26;6.50;99.90
9151;DHT22;4610;50.006;7.490;2023-04-07T00:24:55;6.50;99.90
9151;DHT22;4610;50.006;7.490;2023-04-07T00:27:21;6.60;99.90
9151;DHT22;4610;50.006;7.490;2023-04-07T00:29:48;6.60;99.90
9151;DHT22;4610;50.006;7.490;2023-04-07T00:32:15;6.60;99.90
9151;DHT22;4610;50.006;7.490;2023-04-07T00:34:42;6.60;99.90
9151;DHT22;4610;50.006;7.490;2023-04-07T00:37:08;6.60;99.90
9151;DHT22;4610;50.006;7.490;2023-04-07T00:39:36;6.60;99.90
9151;DHT22;4610;50.006;7.490;2023-04-07T00:42:04;6.60;99.90
9151;DHT22;4610;50.006;7.490;2023-04-07T00:44:31;6.60;99.90
9151;DHT22;4610;50.006;7.490;2023-04-07T00:46:58;6.60;99.90
9151;DHT22;4610;50.006;7.490;2023-04-07T00:49:26;6.60;99.90
9151;DHT22;4610;50.006;7.490;2023-04-07T00:51:53;6.60;99.90
9151;DHT22;4610;50.006;7.490;2023-04-07T00:54:21;6.60;99.90
9151;DHT22;4610;50.006;7.490;2023-04-07T00:56:48;6.70;99.90
9151;DHT22;4610;50.006;7.490;2023-04-07T00:59:17;6.60;99.90
9151;DHT22;4610;50.006;7.490;2023-04-07T01:01:49;6.60;99.90
9151;DHT22;4610;50.006;7.490;2023-04-07T01:04:25;6.60;99.90
9151;DHT22;4610;50.006;7.490;2023-04-07T01:06:57;6.70;99.90
9151;DHT22;4610;50.006;7.490;2023-04-07T01:09:35;6.70;99.90
9151;DHT22;4610;50.006;7.490;2023-04-07T01:12:06;6.70;99.90
9151;DHT22;4610;50.006;7.490;2023-04-07T01:14:41;6.70;99.90
9151;DHT22;4610;50.006;7.490;2023-04-07T01:17:12;6.80;99.90
9151;DHT22;4610;50.006;7.490;2023-04-07T01:19:45;6.80;99.90
9151;DHT22;4610;50.006;7.490;2023-04-07T01:22:16;6.70;99.90
9151;DHT22;4610;50.006;7.490;2023-04-07T01:25:20;6.70;99.90
9151;DHT22;4610;50.006;7.490;2023-04-07T01:27:59;6.70;99.90
9151;DHT22;4610;50.006;7.490;2023-04-07T01:30:35;6.70;99.90
9151;DHT22;4610;50.006;7.490;2023-04-07T01:33:04;6.60;99.90
9151;DHT22;4610;50.006;7.490;2023-04-07T01:35:33;6.70;99.90
9151;DHT22;4610;50.006;7.490;2023-04-07T01:38:02;6.60;99.90
9151;DHT22;4610;50.006;7.490;2023-04-07T01:40:29;6.60;99.90
9151;DHT22;4610;50.006;7.490;2023-04-07T01:42:59;6.60;99.90
9151;DHT22;4610;50.006;7.490;2023-04-07T01:45:28;6.60;99.90
9151;DHT22;4610;50.006;7.490;2023-04-07T01:47:56;6.60;99.90
9151;DHT22;4610;50.006;7.490;2023-04-07T01:50:24;6.60;99.90
9151;DHT22;4610;50.006;7.490;2023-04-07T01:52:52;6.60;99.90
9151;DHT22;4610;50.006;7.490;2023-04-07T01:55:19;6.50;99.90
9151;DHT22;4610;50.006;7.490;2023-04-07T01:57:46;6.50;99.90
9151;DHT22;4610;50.006;7.490;2023-04-07T02:00:13;6.50;99.90
9151;DHT22;4610;50.006;7.490;2023-04-07T02:02:43;6.50;99.90
9151;DHT22;4610;50.006;7.490;2023-04-07T02:05:16;6.50;99.90
9151;DHT22;4610;50.006;7.490;2023-04-07T02:07:48;6.50;99.90
9151;DHT22;4610;50.006;7.490;2023-04-07T02:10:20;6.50;99.90
9151;DHT22;4610;50.006;7.490;2023-04-07T02:12:48;6.50;99.90
9151;DHT22;4610;50.006;7.490;2023-04-07T02:15:15;6.50;99.90
9151;DHT22;4610;50.006;7.490;2023-04-07T02:17:46;6.50;99.90
9151;DHT22;4610;50.006;7.490;2023-04-07T02:20:15;6.50;99.90
9151;DHT22;4610;50.006;7.490;2023-04-07T02:22:42;6.60;99.90
9151;DHT22;4610;50.006;7.490;2023-04-07T02:25:24;6.50;99.90
9151;DHT22;4610;50.006;7.490;2023-04-07T02:27:51;6.60;99.90
9151;DHT22;4610;50.006;7.490;2023-04-07T02:30:18;6.60;99.90
9151;DHT22;4610;50.006;7.490;2023-04-07T02:32:45;6.70;99.90
9151;DHT22;4610;50.006;7.490;2023-04-07T02:37:40;6.70;99.90
9151;DHT22;4610;50.006;7.490;2023-04-07T02:40:08;6.80;99.90
9151;DHT22;4610;50.006;7.490;2023-04-07T02:42:35;6.80;99.90
9151;DHT22;4610;50.006;7.490;2023-04-07T02:45:02;6.70;99.90
9151;DHT22;4610;50.006;7.490;2023-04-07T02:47:29;6.70;99.90
9151;DHT22;4610;50.006;7.490;2023-04-07T02:49:55;6.70;99.90
9151;DHT22;4610;50.006;7.490;2023-04-07T02:52:22;6.70;99.90
9151;DHT22;4610;50.006;7.490;2023-04-07T02:54:50;6.70;99.90
9151;DHT22;4610;50.006;7.490;2023-04-07T02:57:18;6.70;99.90
9151;DHT22;4610;50.006;7.490;2023-04-07T02:59:44;6.70;99.90
9151;DHT22;4610;50.006;7.490;2023-04-07T03:02:11;6.70;99.90
9151;DHT22;4610;50.006;7.490;2023-04-07T03:04:38;6.70;99.90
9151;DHT22;4610;50.006;7.490;2023-04-07T03:07:05;6.60;99.90
9151;DHT22;4610;50.006;7.490;2023-04-07T03:09:31;6.50;99.90
9151;DHT22;4610;50.006;7.490;2023-04-07T03:12:00;6.60;99.90
9151;DHT22;4610;50.006;7.490;2023-04-07T03:14:27;6.50;99.90
9151;DHT22;4610;50.006;7.490;2023-04-07T03:16:54;6.50;99.90
9151;DHT22;4610;50.006;7.490;2023-04-07T03:19:21;6.50;99.90
9151;DHT22;4610;50.006;7.490;2023-04-07T03:21:48;6.60;99.90
9151;DHT22;4610;50.006;7.490;2023-04-07T03:24:15;6.60;99.90
9151;DHT22;4610;50.006;7.490;2023-04-07T03:26:42;6.50;99.90
9151;DHT22;4610;50.006;7.490;2023-04-07T03:29:11;6.40;99.90
9151;DHT22;4610;50.006;7.490;2023-04-07T03:31:37;6.50;99.90
9151;DHT22;4610;50.006;7.490;2023-04-07T03:34:04;6.50;99.90
9151;DHT22;4610;50.006;7.490;2023-04-07T03:36:31;6.50;99.90
9151;DHT22;4610;50.006;7.490;2023-04-07T03:38:58;6.60;99.90
9151;DHT22;4610;50.006;7.490;2023-04-07T03:41:25;6.60;99.90
9151;DHT22;4610;50.006;7.490;2023-04-07T03:43:51;6.60;99.90
9151;DHT22;4610;50.006;7.490;2023-04-07T03:46:19;6.60;99.90
9151;DHT22;4610;50.006;7.490;2023-04-07T03:48:46;6.50;99.90
9151;DHT22;4610;50.006;7.490;2023-04-07T03:51:13;6.60;99.90
9151;DHT22;4610;50.006;7.490;2023-04-07T03:53:40;6.60;99.90
9151;DHT22;4610;50.006;7.490;2023-04-07T03:56:07;6.60;99.90
9151;DHT22;4610;50.006;7.490;2023-04-07T03:58:34;6.60;99.90
9151;DHT22;4610;50.006;7.490;2023-04-07T04:01:01;6.70;99.90
9151;DHT22;4610;50.006;7.490;2023-04-07T04:03:29;6.70;99.90
9151;DHT22;4610;50.006;7.490;2023-04-07T04:05:56;6.70;99.90
9151;DHT22;4610;50.006;7.490;2023-04-07T04:08:22;6.70;99.90
9151;DHT22;4610;50.006;7.490;2023-04-07T04:10:49;6.70;99.90
9151;DHT22;4610;50.006;7.490;2023-04-07T04:13:16;6.70;99.90
9151;DHT22;4610;50.006;7.490;2023-04-07T04:15:43;6.70;99.90
9151;DHT22;4610;50.006;7.490;2023-04-07T04:18:10;6.70;99.90
9151;DHT22;4610;50.006;7.490;2023-04-07T04:20:38;6.70;99.90
9151;DHT22;4610;50.006;7.490;2023-04-07T04:23:05;6.80;99.90
9151;DHT22;4610;50.006;7.490;2023-04-07T04:25:32;6.80;99.90
9151;DHT22;4610;50.006;7.490;2023-04-07T04:27:59;6.70;99.90
9151;DHT22;4610;50.006;7.490;2023-04-07T04:30:25;6.70;99.90
9151;DHT22;4610;50.006;7.490;2023-04-07T04:32:52;6.70;99.90
9151;DHT22;4610;50.006;7.490;2023-04-07T04:35:20;6.80;99.90
9151;DHT22;4610;50.006;7.490;2023-04-07T04:37:48;6.80;99.90
9151;DHT22;4610;50.006;7.490;2023-04-07T04:40:15;6.80;99.90
9151;DHT22;4610;50.006;7.490;2023-04-07T04:42:42;6.80;99.90
9151;DHT22;4610;50.006;7.490;2023-04-07T04:45:09;6.80;99.90
9151;DHT22;4610;50.006;7.490;2023-04-07T04:47:36;6.80;99.90
9151;DHT22;4610;50.006;7.490;2023-04-07T04:50:04;6.70;99.90
9151;DHT22;4610;50.006;7.490;2023-04-07T04:52:30;6.70;99.90
9151;DHT22;4610;50.006;7.490;2023-04-07T04:55:00;6.70;99.90
9151;DHT22;4610;50.006;7.490;2023-04-07T04:57:27;6.80;99.90
9151;DHT22;4610;50.006;7.490;2023-04-07T04:59:53;6.80;99.90
9151;DHT22;4610;50.006;7.490;2023-04-07T05:02:20;6.80;99.90
9151;DHT22;4610;50.006;7.490;2023-04-07T05:04:47;6.80;99.90
9151;DHT22;4610;50.006;7.490;2023-04-07T05:07:14;6.80;99.90
9151;DHT22;4610;50.006;7.490;2023-04-07T05:09:40;6.70;99.90
9151;DHT22;4610;50.006;7.490;2023-04-07T05:12:09;6.60;99.90
9151;DHT22;4610;50.006;7.490;2023-04-07T05:14:35;6.70;99.90
9151;DHT22;4610;50.006;7.490;2023-04-07T05:17:02;6.70;99.90
9151;DHT22;4610;50.006;7.490;2023-04-07T05:19:29;6.70;99.90
9151;DHT22;4610;50.006;7.490;2023-04-07T05:21:56;6.80;99.90
9151;DHT22;4610;50.006;7.490;2023-04-07T05:24:24;6.90;99.90
9151;DHT22;4610;50.006;7.490;2023-04-07T05:26:51;6.80;99.90
9151;DHT22;4610;50.006;7.490;2023-04-07T05:29:19;6.80;99.90
9151;DHT22;4610;50.006;7.490;2023-04-07T05:31:46;6.70;99.90
9151;DHT22;4610;50.006;7.490;2023-04-07T05:34:12;6.80;99.90
9151;DHT22;4610;50.006;7.490;2023-04-07T05:36:40;6.80;99.90
9151;DHT22;4610;50.006;7.490;2023-04-07T05:39:06;6.90;99.90
9151;DHT22;4610;50.006;7.490;2023-04-07T05:41:33;6.90;99.90
9151;DHT22;4610;50.006;7.490;2023-04-07T05:44:00;6.90;99.90
9151;DHT22;4610;50.006;7.490;2023-04-07T05:46:29;6.90;99.90
9151;DHT22;4610;50.006;7.490;2023-04-07T05:48:55;6.90;99.90
9151;DHT22;4610;50.006;7.490;2023-04-07T05:51:22;6.80;99.90
9151;DHT22;4610;50.006;7.490;2023-04-07T05:53:49;6.80;99.90
9151;DHT22;4610;50.006;7.490;2023-04-07T05:56:16;6.90;99.90
9151;DHT22;4610;50.006;7.490;2023-04-07T05:58:42;6.90;99.90
9151;DHT22;4610;50.006;7.490;2023-04-07T06:01:09;6.90;99.90
9151;DHT22;4610;50.006;7.490;2023-04-07T06:03:37;6.90;99.90
9151;DHT22;4610;50.006;7.490;2023-04-07T06:06:05;6.90;99.90
9151;DHT22;4610;50.006;7.490;2023-04-07T06:08:32;6.90;99.90
9151;DHT22;4610;50.006;7.490;2023-04-07T06:10:59;6.90;99.90
9151;DHT22;4610;50.006;7.490;2023-04-07T06:13:26;6.80;99.90
9151;DHT22;4610;50.006;7.490;2023-04-07T06:15:54;6.90;99.90
9151;DHT22;4610;50.006;7.490;2023-04-07T06:18:21;6.90;99.90
9151;DHT22;4610;50.006;7.490;2023-04-07T06:20:49;7.00;99.90
9151;DHT22;4610;50.006;7.490;2023-04-07T06:23:16;7.00;99.90
9151;DHT22;4610;50.006;7.490;2023-04-07T06:25:42;7.00;99.90
9151;DHT22;4610;50.006;7.490;2023-04-07T06:28:10;7.10;99.90
9151;DHT22;4610;50.006;7.490;2023-04-07T06:30:37;7.00;99.90
9151;DHT22;4610;50.006;7.490;2023-04-07T06:33:05;7.00;99.90
9151;DHT22;4610;50.006;7.490;2023-04-07T06:35:32;7.00;99.90
9151;DHT22;4610;50.006;7.490;2023-04-07T06:38:00;7.00;99.90
9151;DHT22;4610;50.006;7.490;2023-04-07T06:40:27;7.10;99.90
9151;DHT22;4610;50.006;7.490;2023-04-07T06:42:54;7.10;99.90
9151;DHT22;4610;50.006;7.490;2023-04-07T06:45:21;7.20;99.90
9151;DHT22;4610;50.006;7.490;2023-04-07T06:47:47;7.30;99.90
9151;DHT22;4610;50.006;7.490;2023-04-07T06:50:14;7.30;99.90
9151;DHT22;4610;50.006;7.490;2023-04-07T06:52:45;7.40;99.90
9151;DHT22;4610;50.006;7.490;2023-04-07T06:55:13;7.30;99.90
9151;DHT22;4610;50.006;7.490;2023-04-07T06:57:40;7.40;99.90
9151;DHT22;4610;50.006;7.490;2023-04-07T07:00:07;7.50;99.90
9151;DHT22;4610;50.006;7.490;2023-04-07T07:02:35;7.60;99.90
9151;DHT22;4610;50.006;7.490;2023-04-07T07:05:02;7.70;99.90
9151;DHT22;4610;50.006;7.490;2023-04-07T07:07:29;7.80;99.90
9151;DHT22;4610;50.006;7.490;2023-04-07T07:09:56;7.90;99.90
9151;DHT22;4610;50.006;7.490;2023-04-07T07:12:24;7.90;99.90
9151;DHT22;4610;50.006;7.490;2023-04-07T07:14:50;7.80;99.90
9151;DHT22;4610;50.006;7.490;2023-04-07T07:17:17;7.80;99.90
9151;DHT22;4610;50.006;7.490;2023-04-07T07:19:44;7.80;99.90
9151;DHT22;4610;50.006;7.490;2023-04-07T07:22:11;7.90;99.90
9151;DHT22;4610;50.006;7.490;2023-04-07T07:24:37;7.90;99.90
9151;DHT22;4610;50.006;7.490;2023-04-07T07:27:04;8.00;99.90
9151;DHT22;4610;50.006;7.490;2023-04-07T07:29:32;8.00;99.90
9151;DHT22;4610;50.006;7.490;2023-04-07T07:31:59;8.00;99.90
9151;DHT22;4610;50.006;7.490;2023-04-07T07:34:26;8.10;99.90
9151;DHT22;4610;50.006;7.490;2023-04-07T07:36:52;8.10;99.90
9151;DHT22;4610;50.006;7.490;2023-04-07T07:39:19;8.20;99.90
9151;DHT22;4610;50.006;7.490;2023-04-07T07:41:46;8.20;99.90
9151;DHT22;4610;50.006;7.490;2023-04-07T07:44:13;8.30;99.90
9151;DHT22;4610;50.006;7.490;2023-04-07T07:46:41;8.40;99.90
9151;DHT22;4610;50.006;7.490;2023-04-07T07:49:08;8.40;99.90
9151;DHT22;4610;50.006;7.490;2023-04-07T07:51:35;8.50;99.90
9151;DHT22;4610;50.006;7.490;2023-04-07T07:54:02;8.40;99.90
9151;DHT22;4610;50.006;7.490;2023-04-07T07:56:29;8.40;99.90
9151;DHT22;4610;50.006;7.490;2023-04-07T07:58:55;8.40;99.90
9151;DHT22;4610;50.006;7.490;2023-04-07T08:01:22;8.40;99.90
9151;DHT22;4610;50.006;7.490;2023-04-07T08:03:50;8.50;99.90
9151;DHT22;4610;50.006;7.490;2023-04-07T08:06:17;8.50;99.90
9151;DHT22;4610;50.006;7.490;2023-04-07T08:08:44;8.90;99.90
9151;DHT22;4610;50.006;7.490;2023-04-07T08:11:10;9.40;99.90
9151;DHT22;4610;50.006;7.490;2023-04-07T08:13:37;9.20;99.90
9151;DHT22;4610;50.006;7.490;2023-04-07T08:16:05;9.10;99.90
9151;DHT22;4610;50.006;7.490;2023-04-07T08:18:31;9.00;99.90
9151;DHT22;4610;50.006;7.490;2023-04-07T08:21:00;9.00;99.90
9151;DHT22;4610;50.006;7.490;2023-04-07T08:23:26;8.90;99.90
9151;DHT22;4610;50.006;7.490;2023-04-07T08:25:53;8.90;99.90
9151;DHT22;4610;50.006;7.490;2023-04-07T08:28:20;8.90;99.90
9151;DHT22;4610;50.006;7.490;2023-04-07T08:30:47;8.70;99.90
9151;DHT22;4610;50.006;7.490;2023-04-07T08:33:14;8.70;99.90
9151;DHT22;4610;50.006;7.490;2023-04-07T08:35:41;8.50;99.90
9151;DHT22;4610;50.006;7.490;2023-04-07T08:38:09;8.50;99.90
9151;DHT22;4610;50.006;7.490;2023-04-07T08:40:36;8.40;99.90
9151;DHT22;4610;50.006;7.490;2023-04-07T08:43:05;8.40;99.90
9151;DHT22;4610;50.006;7.490;2023-04-07T08:45:37;8.40;99.90
9151;DHT22;4610;50.006;7.490;2023-04-07T08:48:08;8.40;99.90
9151;DHT22;4610;50.006;7.490;2023-04-07T08:50:39;8.40;99.90
9151;DHT22;4610;50.006;7.490;2023-04-07T08:53:12;8.30;99.90
9151;DHT22;4610;50.006;7.490;2023-04-07T08:55:39;8.30;99.90
9151;DHT22;4610;50.006;7.490;2023-04-07T08:58:08;8.30;99.90
9151;DHT22;4610;50.006;7.490;2023-04-07T09:00:37;8.20;99.90
9151;DHT22;4610;50.006;7.490;2023-04-07T09:03:06;8.30;99.90
9151;DHT22;4610;50.006;7.490;2023-04-07T09:05:34;8.40;99.90
9151;DHT22;4610;50.006;7.490;2023-04-07T09:08:01;8.50;99.90
9151;DHT22;4610;50.006;7.490;2023-04-07T09:10:29;8.60;99.90
9151;DHT22;4610;50.006;7.490;2023-04-07T09:12:57;8.60;99.90
9151;DHT22;4610;50.006;7.490;2023-04-07T09:15:25;8.60;99.90
9151;DHT22;4610;50.006;7.490;2023-04-07T09:17:51;8.60;99.90
9151;DHT22;4610;50.006;7.490;2023-04-07T09:20:18;8.70;99.90
9151;DHT22;4610;50.006;7.490;2023-04-07T09:22:45;8.70;99.90
9151;DHT22;4610;50.006;7.490;2023-04-07T09:25:14;8.60;99.90
9151;DHT22;4610;50.006;7.490;2023-04-07T09:27:53;8.60;99.90
9151;DHT22;4610;50.006;7.490;2023-04-07T09:30:21;8.50;99.90
9151;DHT22;4610;50.006;7.490;2023-04-07T09:32:47;8.50;99.90
9151;DHT22;4610;50.006;7.490;2023-04-07T09:35:14;8.50;99.90
9151;DHT22;4610;50.006;7.490;2023-04-07T09:37:41;8.50;99.90
9151;DHT22;4610;50.006;7.490;2023-04-07T09:40:10;8.50;99.90
9151;DHT22;4610;50.006;7.490;2023-04-07T09:42:45;8.60;99.90
9151;DHT22;4610;50.006;7.490;2023-04-07T09:45:23;8.60;99.90
9151;DHT22;4610;50.006;7.490;2023-04-07T09:47:50;8.50;99.90
9151;DHT22;4610;50.006;7.490;2023-04-07T09:50:30;8.50;99.90
9151;DHT22;4610;50.006;7.490;2023-04-07T09:52:56;8.50;99.90
9151;DHT22;4610;50.006;7.490;2023-04-07T09:55:23;8.50;99.90
9151;DHT22;4610;50.006;7.490;2023-04-07T09:57:52;8.40;99.90
9151;DHT22;4610;50.006;7.490;2023-04-07T10:00:20;8.30;99.90
9151;DHT22;4610;50.006;7.490;2023-04-07T10:02:48;8.30;99.90
9151;DHT22;4610;50.006;7.490;2023-04-07T10:05:16;8.30;99.90
9151;DHT22;4610;50.006;7.490;2023-04-07T10:07:45;8.30;99.90
9151;DHT22;4610;50.006;7.490;2023-04-07T10:10:12;8.30;99.90
9151;DHT22;4610;50.006;7.490;2023-04-07T10:12:40;8.50;99.90
9151;DHT22;4610;50.006;7.490;2023-04-07T10:15:11;8.60;99.90
9151;DHT22;4610;50.006;7.490;2023-04-07T10:17:41;8.80;99.90
9151;DHT22;4610;50.006;7.490;2023-04-07T10:20:11;8.80;99.90
9151;DHT22;4610;50.006;7.490;2023-04-07T10:22:40;8.80;99.90
9151;DHT22;4610;50.006;7.490;2023-04-07T10:25:10;8.80;99.90
9151;DHT22;4610;50.006;7.490;2023-04-07T10:27:41;9.00;99.90
9151;DHT22;4610;50.006;7.490;2023-04-07T10:30:19;9.10;99.90
9151;DHT22;4610;50.006;7.490;2023-04-07T10:32:47;9.20;99.90
9151;DHT22;4610;50.006;7.490;2023-04-07T10:35:15;9.30;99.90
9151;DHT22;4610;50.006;7.490;2023-04-07T10:38:09;9.40;99.90
9151;DHT22;4610;50.006;7.490;2023-04-07T10:40:38;9.30;99.90
9151;DHT22;4610;50.006;7.490;2023-04-07T10:43:06;9.20;99.90
9151;DHT22;4610;50.006;7.490;2023-04-07T10:45:55;9.30;99.90
9151;DHT22;4610;50.006;7.490;2023-04-07T10:48:25;9.40;99.90
9151;DHT22;4610;50.006;7.490;2023-04-07T10:51:21;9.20;99.90
9151;DHT22;4610;50.006;7.490;2023-04-07T10:54:21;9.30;99.90
9151;DHT22;4610;50.006;7.490;2023-04-07T10:57:10;10.10;99.90
9151;DHT22;4610;50.006;7.490;2023-04-07T11:02:34;10.10;99.90
9151;DHT22;4610;50.006;7.490;2023-04-07T11:05:01;10.00;99.90
9151;DHT22;4610;50.006;7.490;2023-04-07T11:07:51;10.30;99.90
9151;DHT22;4610;50.006;7.490;2023-04-07T11:10:19;10.50;99.90
9151;DHT22;4610;50.006;7.490;2023-04-07T11:13:04;10.60;99.90
9151;DHT22;4610;50.006;7.490;2023-04-07T11:15:32;10.40;99.90
9151;DHT22;4610;50.006;7.490;2023-04-07T11:18:10;10.00;99.90
9151;DHT22;4610;50.006;7.490;2023-04-07T11:20:41;9.90;99.90
9151;DHT22;4610;50.006;7.490;2023-04-07T11:23:08;9.90;99.90
9151;DHT22;4610;50.006;7.490;2023-04-07T11:25:36;10.00;99.90
9151;DHT22;4610;50.006;7.490;2023-04-07T11:28:03;10.20;99.90
9151;DHT22;4610;50.006;7.490;2023-04-07T11:30:31;10.30;99.90
9151;DHT22;4610;50.006;7.490;2023-04-07T11:32:58;10.30;99.90
9151;DHT22;4610;50.006;7.490;2023-04-07T11:35:26;10.40;99.90
9151;DHT22;4610;50.006;7.490;2023-04-07T11:37:57;10.40;99.90
9151;DHT22;4610;50.006;7.490;2023-04-07T11:40:31;10.50;99.90
9151;DHT22;4610;50.006;7.490;2023-04-07T11:42:59;10.50;99.90
9151;DHT22;4610;50.006;7.490;2023-04-07T11:45:25;10.60;99.90
9151;DHT22;4610;50.006;7.490;2023-04-07T11:47:52;10.70;99.90
9151;DHT22;4610;50.006;7.490;2023-04-07T11:50:39;10.80;99.90
9151;DHT22;4610;50.006;7.490;2023-04-07T11:53:06;10.90;99.90
9151;DHT22;4610;50.006;7.490;2023-04-07T11:55:33;10.60;99.90
9151;DHT22;4610;50.006;7.490;2023-04-07T11:58:05;10.30;99.90
9151;DHT22;4610;50.006;7.490;2023-04-07T12:00:34;10.20;99.90
9151;DHT22;4610;50.006;7.490;2023-04-07T12:03:09;10.30;99.90
9151;DHT22;4610;50.006;7.490;2023-04-07T12:05:44;10.50;99.90
9151;DHT22;4610;50.006;7.490;2023-04-07T12:08:11;10.80;99.90
9151;DHT22;4610;50.006;7.490;2023-04-07T12:10:38;11.00;99.90
9151;DHT22;4610;50.006;7.490;2023-04-07T12:13:06;11.20;99.90
9151;DHT22;4610;50.006;7.490;2023-04-07T12:15:34;11.30;99.90
9151;DHT22;4610;50.006;7.490;2023-04-07T12:18:01;11.50;99.90
9151;DHT22;4610;50.006;7.490;2023-04-07T12:20:28;11.70;99.90
9151;DHT22;4610;50.006;7.490;2023-04-07T12:22:57;11.90;99.90
9151;DHT22;4610;50.006;7.490;2023-04-07T12:25:25;12.10;99.90
9151;DHT22;4610;50.006;7.490;2023-04-07T12:27:52;12.00;99.90
9151;DHT22;4610;50.006;7.490;2023-04-07T12:30:19;11.90;99.90
9151;DHT22;4610;50.006;7.490;2023-04-07T12:32:46;11.90;99.90
9151;DHT22;4610;50.006;7.490;2023-04-07T12:35:13;11.90;99.90
9151;DHT22;4610;50.006;7.490;2023-04-07T12:37:40;12.00;99.90
9151;DHT22;4610;50.006;7.490;2023-04-07T12:40:08;12.00;99.90
9151;DHT22;4610;50.006;7.490;2023-04-07T12:42:35;12.00;99.90
9151;DHT22;4610;50.006;7.490;2023-04-07T12:45:02;12.00;99.90
9151;DHT22;4610;50.006;7.490;2023-04-07T12:47:29;11.80;99.90
9151;DHT22;4610;50.006;7.490;2023-04-07T12:49:56;11.80;99.90
9151;DHT22;4610;50.006;7.490;2023-04-07T12:52:23;11.40;99.90
9151;DHT22;4610;50.006;7.490;2023-04-07T12:54:50;11.20;99.90
9151;DHT22;4610;50.006;7.490;2023-04-07T12:57:19;11.10;99.90
9151;DHT22;4610;50.006;7.490;2023-04-07T12:59:46;11.10;99.90
9151;DHT22;4610;50.006;7.490;2023-04-07T13:02:12;11.10;99.90
9151;DHT22;4610;50.006;7.490;2023-04-07T13:04:42;11.20;99.90
9151;DHT22;4610;50.006;7.490;2023-04-07T13:07:11;11.40;99.90
9151;DHT22;4610;50.006;7.490;2023-04-07T13:09:38;11.50;99.90
9151;DHT22;4610;50.006;7.490;2023-04-07T13:12:05;11.60;99.90
9151;DHT22;4610;50.006;7.490;2023-04-07T13:14:33;11.60;99.90
9151;DHT22;4610;50.006;7.490;2023-04-07T13:17:00;11.70;99.90
9151;DHT22;4610;50.006;7.490;2023-04-07T13:19:28;11.90;99.90
9151;DHT22;4610;50.006;7.490;2023-04-07T13:21:55;12.00;99.90
9151;DHT22;4610;50.006;7.490;2023-04-07T13:24:21;12.20;99.90
9151;DHT22;4610;50.006;7.490;2023-04-07T13:26:49;12.30;99.90
9151;DHT22;4610;50.006;7.490;2023-04-07T13:29:16;12.40;99.90
9151;DHT22;4610;50.006;7.490;2023-04-07T13:31:45;12.30;99.90
9151;DHT22;4610;50.006;7.490;2023-04-07T13:34:13;12.30;99.90
9151;DHT22;4610;50.006;7.490;2023-04-07T13:36:40;12.40;99.90
9151;DHT22;4610;50.006;7.490;2023-04-07T13:39:07;12.40;99.90
9151;DHT22;4610;50.006;7.490;2023-04-07T13:41:34;12.40;99.90
9151;DHT22;4610;50.006;7.490;2023-04-07T13:44:00;12.60;99.90
9151;DHT22;4610;50.006;7.490;2023-04-07T13:46:28;12.70;99.90
9151;DHT22;4610;50.006;7.490;2023-04-07T13:48:56;12.60;99.90
9151;DHT22;4610;50.006;7.490;2023-04-07T13:51:23;12.60;99.90
9151;DHT22;4610;50.006;7.490;2023-04-07T13:53:50;12.60;99.90
9151;DHT22;4610;50.006;7.490;2023-04-07T13:56:17;12.90;99.90
9151;DHT22;4610;50.006;7.490;2023-04-07T13:58:44;12.90;99.90
9151;DHT22;4610;50.006;7.490;2023-04-07T14:01:11;12.70;99.90
9151;DHT22;4610;50.006;7.490;2023-04-07T14:03:37;12.70;99.90
9151;DHT22;4610;50.006;7.490;2023-04-07T14:06:05;12.60;99.90
9151;DHT22;4610;50.006;7.490;2023-04-07T14:08:32;12.50;99.90
9151;DHT22;4610;50.006;7.490;2023-04-07T14:10:59;12.30;99.90
9151;DHT22;4610;50.006;7.490;2023-04-07T14:13:26;12.20;99.90
9151;DHT22;4610;50.006;7.490;2023-04-07T14:15:52;12.20;99.90
9151;DHT22;4610;50.006;7.490;2023-04-07T14:18:20;12.40;99.90
9151;DHT22;4610;50.006;7.490;2023-04-07T14:20:48;12.40;99.90
9151;DHT22;4610;50.006;7.490;2023-04-07T14:23:16;12.40;99.90
9151;DHT22;4610;50.006;7.490;2023-04-07T14:25:43;12.40;99.90
9151;DHT22;4610;50.006;7.490;2023-04-07T14:28:10;12.30;99.90
9151;DHT22;4610;50.006;7.490;2023-04-07T14:30:36;12.20;99.90
9151;DHT22;4610;50.006;7.490;2023-04-07T14:33:04;12.00;99.90
9151;DHT22;4610;50.006;7.490;2023-04-07T14:35:30;11.90;99.90
9151;DHT22;4610;50.006;7.490;2023-04-07T14:37:57;11.90;99.90
9151;DHT22;4610;50.006;7.490;2023-04-07T14:40:26;11.80;99.90
9151;DHT22;4610;50.006;7.490;2023-04-07T14:42:52;12.00;99.90
9151;DHT22;4610;50.006;7.490;2023-04-07T14:45:20;12.30;99.90
9151;DHT22;4610;50.006;7.490;2023-04-07T14:47:47;12.30;99.90
9151;DHT22;4610;50.006;7.490;2023-04-07T14:50:13;12.30;99.90
9151;DHT22;4610;50.006;7.490;2023-04-07T14:52:40;12.10;99.90
9151;DHT22;4610;50.006;7.490;2023-04-07T14:55:08;12.30;99.90
9151;DHT22;4610;50.006;7.490;2023-04-07T14:57:37;12.50;99.90
9151;DHT22;4610;50.006;7.490;2023-04-07T15:00:05;12.60;99.90
9151;DHT22;4610;50.006;7.490;2023-04-07T15:02:33;12.70;99.90
9151;DHT22;4610;50.006;7.490;2023-04-07T15:05:00;12.70;99.90
9151;DHT22;4610;50.006;7.490;2023-04-07T15:07:27;12.80;99.90
9151;DHT22;4610;50.006;7.490;2023-04-07T15:09:54;12.80;99.90
9151;DHT22;4610;50.006;7.490;2023-04-07T15:12:21;12.70;99.90
9151;DHT22;4610;50.006;7.490;2023-04-07T15:14:51;12.70;99.90
9151;DHT22;4610;50.006;7.490;2023-04-07T15:17:17;12.70;99.90
9151;DHT22;4610;50.006;7.490;2023-04-07T15:19:45;12.40;99.90
9151;DHT22;4610;50.006;7.490;2023-04-07T15:22:12;12.40;99.90
9151;DHT22;4610;50.006;7.490;2023-04-07T15:24:39;12.20;99.90
9151;DHT22;4610;50.006;7.490;2023-04-07T15:27:07;12.00;99.90
9151;DHT22;4610;50.006;7.490;2023-04-07T15:29:35;11.90;99.90
9151;DHT22;4610;50.006;7.490;2023-04-07T15:32:04;11.80;99.90
9151;DHT22;4610;50.006;7.490;2023-04-07T15:34:31;11.70;99.90
9151;DHT22;4610;50.006;7.490;2023-04-07T15:36:58;11.50;99.90
9151;DHT22;4610;50.006;7.490;2023-04-07T15:39:25;11.40;99.90
9151;DHT22;4610;50.006;7.490;2023-04-07T15:41:51;11.70;99.90
9151;DHT22;4610;50.006;7.490;2023-04-07T15:44:18;11.40;99.90
9151;DHT22;4610;50.006;7.490;2023-04-07T15:46:45;11.40;99.90
9151;DHT22;4610;50.006;7.490;2023-04-07T15:49:13;11.40;99.90
9151;DHT22;4610;50.006;7.490;2023-04-07T15:51:44;11.40;99.90
9151;DHT22;4610;50.006;7.490;2023-04-07T15:54:11;11.40;99.90
9151;DHT22;4610;50.006;7.490;2023-04-07T15:56:38;11.30;99.90
9151;DHT22;4610;50.006;7.490;2023-04-07T15:59:04;11.10;99.90
9151;DHT22;4610;50.006;7.490;2023-04-07T16:01:31;11.00;99.90
9151;DHT22;4610;50.006;7.490;2023-04-07T16:03:58;11.00;99.90
9151;DHT22;4610;50.006;7.490;2023-04-07T16:06:26;11.00;99.90
9151;DHT22;4610;50.006;7.490;2023-04-07T16:08:53;11.00;99.90
9151;DHT22;4610;50.006;7.490;2023-04-07T16:11:20;10.70;99.90
9151;DHT22;4610;50.006;7.490;2023-04-07T16:13:47;10.60;99.90
9151;DHT22;4610;50.006;7.490;2023-04-07T16:16:14;10.50;99.90
9151;DHT22;4610;50.006;7.490;2023-04-07T16:18:41;10.40;99.90
9151;DHT22;4610;50.006;7.490;2023-04-07T16:21:07;10.20;99.90
9151;DHT22;4610;50.006;7.490;2023-04-07T16:23:36;10.10;99.90